sensor_id;sensor_type;location;lat;lon;timestamp;pressure;altitude;pressure_sealevel;temperature
73685;BMP280;61985;51.070;14.064;2023-07-16T00:02:23;98057.38;;;22.14
73685;BMP280;61985;51.070;14.064;2023-07-16T00:04:48;98061.28;;;21.86
73685;BMP280;61985;51.070;14.064;2023-07-16T00:07:13;98062.13;;;21.81
73685;BMP280;61985;51.070;14.064;2023-07-16T00:09:39;98059.75;;;21.72
73685;BMP280;61985;51.070;14.064;2023-07-16T00:12:04;98061.66;;;21.77
73685;BMP280;61985;51.070;14.064;2023-07-16T00:14:30;98062.84;;;21.82
73685;BMP280;61985;51.070;14.064;2023-07-16T00:16:55;98062.47;;;21.91
73685;BMP280;61985;51.070;14.064;2023-07-16T00:19:21;98064.84;;;21.81
73685;BMP280;61985;51.070;14.064;2023-07-16T00:21:46;98074.72;;;21.71
73685;BMP280;61985;51.070;14.064;2023-07-16T00:24:11;98096.38;;;21.74
73685;BMP280;61985;51.070;14.064;2023-07-16T00:26:37;98118.66;;;21.65
73685;BMP280;61985;51.070;14.064;2023-07-16T00:29:02;98126.91;;;21.65
73685;BMP280;61985;51.070;14.064;2023-07-16T00:31:27;98125.66;;;21.85
73685;BMP280;61985;51.070;14.064;2023-07-16T00:33:53;98139.59;;;21.87
73685;BMP280;61985;51.070;14.064;2023-07-16T00:36:18;98165.16;;;21.95
73685;BMP280;61985;51.070;14.064;2023-07-16T00:38:44;98221.47;;;21.96
73685;BMP280;61985;51.070;14.064;2023-07-16T00:41:12;98301.97;;;21.80
73685;BMP280;61985;51.070;14.064;2023-07-16T00:43:37;98305.03;;;21.95
73685;BMP280;61985;51.070;14.064;2023-07-16T00:46:03;98289.06;;;22.18
73685;BMP280;61985;51.070;14.064;2023-07-16T00:48:28;98300.50;;;22.41
73685;BMP280;61985;51.070;14.064;2023-07-16T00:50:54;98338.03;;;22.52
73685;BMP280;61985;51.070;14.064;2023-07-16T00:53:20;98343.22;;;22.56
73685;BMP280;61985;51.070;14.064;2023-07-16T00:55:45;98355.34;;;22.66
73685;BMP280;61985;51.070;14.064;2023-07-16T00:58:11;98360.03;;;22.71
73685;BMP280;61985;51.070;14.064;2023-07-16T01:00:38;98359.50;;;22.73
73685;BMP280;61985;51.070;14.064;2023-07-16T01:03:09;98365.75;;;22.73
73685;BMP280;61985;51.070;14.064;2023-07-16T01:05:41;98372.72;;;22.74
73685;BMP280;61985;51.070;14.064;2023-07-16T01:08:11;98364.97;;;22.73
73685;BMP280;61985;51.070;14.064;2023-07-16T01:10:41;98375.78;;;22.71
73685;BMP280;61985;51.070;14.064;2023-07-16T01:13:07;98368.41;;;22.60
73685;BMP280;61985;51.070;14.064;2023-07-16T01:15:32;98364.03;;;22.51
73685;BMP280;61985;51.070;14.064;2023-07-16T01:17:58;98361.28;;;22.51
73685;BMP280;61985;51.070;14.064;2023-07-16T01:20:24;98344.06;;;22.51
73685;BMP280;61985;51.070;14.064;2023-07-16T01:26:08;98360.53;;;22.51
73685;BMP280;61985;51.070;14.064;2023-07-16T01:31:33;98340.44;;;22.42
73685;BMP280;61985;51.070;14.064;2023-07-16T01:34:00;98339.91;;;22.44
73685;BMP280;61985;51.070;14.064;2023-07-16T01:36:27;98327.13;;;22.47
73685;BMP280;61985;51.070;14.064;2023-07-16T01:38:53;98316.47;;;22.43
73685;BMP280;61985;51.070;14.064;2023-07-16T01:41:19;98306.53;;;22.40
73685;BMP280;61985;51.070;14.064;2023-07-16T01:43:44;98298.44;;;22.48
73685;BMP280;61985;51.070;14.064;2023-07-16T01:46:09;98295.25;;;22.43
73685;BMP280;61985;51.070;14.064;2023-07-16T01:48:36;98285.97;;;22.47
73685;BMP280;61985;51.070;14.064;2023-07-16T01:51:03;98287.91;;;22.52
73685;BMP280;61985;51.070;14.064;2023-07-16T01:53:28;98298.94;;;22.46
73685;BMP280;61985;51.070;14.064;2023-07-16T01:55:54;98304.22;;;22.44
73685;BMP280;61985;51.070;14.064;2023-07-16T01:58:20;98310.50;;;22.39
73685;BMP280;61985;51.070;14.064;2023-07-16T02:00:45;98298.56;;;22.36
73685;BMP280;61985;51.070;14.064;2023-07-16T02:03:13;98292.81;;;22.40
73685;BMP280;61985;51.070;14.064;2023-07-16T02:05:38;98295.09;;;22.36
73685;BMP280;61985;51.070;14.064;2023-07-16T02:08:04;98279.59;;;22.38
73685;BMP280;61985;51.070;14.064;2023-07-16T02:10:29;98281.50;;;22.43
73685;BMP280;61985;51.070;14.064;2023-07-16T02:12:54;98287.97;;;22.46
73685;BMP280;61985;51.070;14.064;2023-07-16T02:15:20;98285.28;;;22.40
73685;BMP280;61985;51.070;14.064;2023-07-16T02:17:47;98294.19;;;22.47
73685;BMP280;61985;51.070;14.064;2023-07-16T02:20:12;98292.41;;;22.49
73685;BMP280;61985;51.070;14.064;2023-07-16T02:22:38;98292.41;;;22.49
73685;BMP280;61985;51.070;14.064;2023-07-16T02:25:04;98304.91;;;22.50
73685;BMP280;61985;51.070;14.064;2023-07-16T02:27:30;98329.97;;;22.41
73685;BMP280;61985;51.070;14.064;2023-07-16T02:29:55;98347.97;;;22.36
73685;BMP280;61985;51.070;14.064;2023-07-16T02:32:21;98354.81;;;22.30
73685;BMP280;61985;51.070;14.064;2023-07-16T02:34:46;98347.31;;;22.30
73685;BMP280;61985;51.070;14.064;2023-07-16T02:37:11;98372.00;;;22.30
73685;BMP280;61985;51.070;14.064;2023-07-16T02:39:38;98393.56;;;22.20
73685;BMP280;61985;51.070;14.064;2023-07-16T02:42:04;98390.84;;;22.20
73685;BMP280;61985;51.070;14.064;2023-07-16T02:44:29;98383.47;;;22.10
73685;BMP280;61985;51.070;14.064;2023-07-16T02:46:55;98378.47;;;22.08
73685;BMP280;61985;51.070;14.064;2023-07-16T02:49:20;98390.75;;;22.01
73685;BMP280;61985;51.070;14.064;2023-07-16T02:51:46;98395.88;;;21.92
73685;BMP280;61985;51.070;14.064;2023-07-16T02:54:11;98398.03;;;21.99
73685;BMP280;61985;51.070;14.064;2023-07-16T02:56:36;98399.84;;;21.91
73685;BMP280;61985;51.070;14.064;2023-07-16T02:59:02;98416.59;;;21.87
73685;BMP280;61985;51.070;14.064;2023-07-16T03:01:27;98422.63;;;21.80
73685;BMP280;61985;51.070;14.064;2023-07-16T03:03:52;98434.34;;;21.80
73685;BMP280;61985;51.070;14.064;2023-07-16T03:06:18;98474.34;;;21.65
73685;BMP280;61985;51.070;14.064;2023-07-16T03:08:43;98484.25;;;21.32
73685;BMP280;61985;51.070;14.064;2023-07-16T03:11:10;98495.16;;;20.96
73685;BMP280;61985;51.070;14.064;2023-07-16T03:13:36;98509.09;;;20.81
73685;BMP280;61985;51.070;14.064;2023-07-16T03:16:02;98515.91;;;20.63
73685;BMP280;61985;51.070;14.064;2023-07-16T03:18:28;98516.66;;;20.53
73685;BMP280;61985;51.070;14.064;2023-07-16T03:20:54;98501.97;;;20.27
73685;BMP280;61985;51.070;14.064;2023-07-16T03:23:19;98510.22;;;20.16
73685;BMP280;61985;51.070;14.064;2023-07-16T03:25:45;98515.41;;;20.08
73685;BMP280;61985;51.070;14.064;2023-07-16T03:28:10;98517.16;;;20.12
73685;BMP280;61985;51.070;14.064;2023-07-16T03:30:36;98511.19;;;20.13
73685;BMP280;61985;51.070;14.064;2023-07-16T03:33:03;98509.94;;;20.03
73685;BMP280;61985;51.070;14.064;2023-07-16T03:35:28;98498.75;;;19.90
73685;BMP280;61985;51.070;14.064;2023-07-16T03:37:53;98504.44;;;19.86
73685;BMP280;61985;51.070;14.064;2023-07-16T03:40:24;98520.84;;;19.86
73685;BMP280;61985;51.070;14.064;2023-07-16T03:42:50;98518.09;;;19.86
73685;BMP280;61985;51.070;14.064;2023-07-16T03:45:15;98507.41;;;19.82
73685;BMP280;61985;51.070;14.064;2023-07-16T03:47:41;98493.50;;;19.92
73685;BMP280;61985;51.070;14.064;2023-07-16T03:50:07;98498.97;;;19.86
73685;BMP280;61985;51.070;14.064;2023-07-16T03:52:33;98483.84;;;19.85
73685;BMP280;61985;51.070;14.064;2023-07-16T03:54:58;98459.19;;;19.79
73685;BMP280;61985;51.070;14.064;2023-07-16T03:57:24;98464.94;;;19.76
73685;BMP280;61985;51.070;14.064;2023-07-16T03:59:49;98462.69;;;19.74
73685;BMP280;61985;51.070;14.064;2023-07-16T04:02:14;98463.91;;;19.73
73685;BMP280;61985;51.070;14.064;2023-07-16T04:04:40;98471.84;;;19.65
73685;BMP280;61985;51.070;14.064;2023-07-16T04:07:05;98478.09;;;19.66
73685;BMP280;61985;51.070;14.064;2023-07-16T04:09:31;98472.84;;;19.62
73685;BMP280;61985;51.070;14.064;2023-07-16T04:11:56;98462.41;;;19.61
73685;BMP280;61985;51.070;14.064;2023-07-16T04:14:21;98454.97;;;19.67
73685;BMP280;61985;51.070;14.064;2023-07-16T04:16:47;98439.56;;;19.70
73685;BMP280;61985;51.070;14.064;2023-07-16T04:19:12;98422.94;;;19.79
73685;BMP280;61985;51.070;14.064;2023-07-16T04:21:38;98425.38;;;19.77
73685;BMP280;61985;51.070;14.064;2023-07-16T04:24:04;98417.94;;;19.89
73685;BMP280;61985;51.070;14.064;2023-07-16T04:26:30;98433.88;;;19.96
73685;BMP280;61985;51.070;14.064;2023-07-16T04:28:56;98430.88;;;20.05
73685;BMP280;61985;51.070;14.064;2023-07-16T04:31:21;98451.25;;;20.10
73685;BMP280;61985;51.070;14.064;2023-07-16T04:33:46;98454.00;;;20.15
73685;BMP280;61985;51.070;14.064;2023-07-16T04:36:12;98448.03;;;20.11
73685;BMP280;61985;51.070;14.064;2023-07-16T04:38:38;98458.47;;;20.13
73685;BMP280;61985;51.070;14.064;2023-07-16T04:41:03;98456.22;;;20.22
73685;BMP280;61985;51.070;14.064;2023-07-16T04:43:28;98461.19;;;20.18
73685;BMP280;61985;51.070;14.064;2023-07-16T04:45:54;98457.44;;;20.21
73685;BMP280;61985;51.070;14.064;2023-07-16T04:48:19;98465.66;;;20.21
73685;BMP280;61985;51.070;14.064;2023-07-16T04:50:44;98463.94;;;20.24
73685;BMP280;61985;51.070;14.064;2023-07-16T04:53:10;98455.72;;;20.13
73685;BMP280;61985;51.070;14.064;2023-07-16T04:55:39;98462.69;;;20.14
73685;BMP280;61985;51.070;14.064;2023-07-16T04:58:05;98451.00;;;20.13
73685;BMP280;61985;51.070;14.064;2023-07-16T05:00:33;98441.81;;;20.11
73685;BMP280;61985;51.070;14.064;2023-07-16T05:02:59;98453.97;;;20.21
73685;BMP280;61985;51.070;14.064;2023-07-16T05:05:24;98453.75;;;20.13
73685;BMP280;61985;51.070;14.064;2023-07-16T05:07:50;98459.72;;;20.17
73685;BMP280;61985;51.070;14.064;2023-07-16T05:10:15;98473.91;;;20.33
73685;BMP280;61985;51.070;14.064;2023-07-16T05:12:41;98486.81;;;20.38
73685;BMP280;61985;51.070;14.064;2023-07-16T05:15:06;98465.91;;;20.35
73685;BMP280;61985;51.070;14.064;2023-07-16T05:17:32;98457.44;;;20.38
73685;BMP280;61985;51.070;14.064;2023-07-16T05:19:59;98458.69;;;20.32
73685;BMP280;61985;51.070;14.064;2023-07-16T05:48:14;98401.25;;;20.09
73685;BMP280;61985;51.070;14.064;2023-07-16T05:50:39;98416.94;;;20.08
73685;BMP280;61985;51.070;14.064;2023-07-16T05:53:04;98419.16;;;20.04
73685;BMP280;61985;51.070;14.064;2023-07-16T05:55:30;98433.09;;;20.12
73685;BMP280;61985;51.070;14.064;2023-07-16T05:57:55;98440.81;;;20.19
73685;BMP280;61985;51.070;14.064;2023-07-16T06:00:20;98454.75;;;20.33
73685;BMP280;61985;51.070;14.064;2023-07-16T06:02:46;98462.19;;;20.32
73685;BMP280;61985;51.070;14.064;2023-07-16T06:05:11;98462.69;;;20.42
73685;BMP280;61985;51.070;14.064;2023-07-16T06:07:36;98475.34;;;20.50
73685;BMP280;61985;51.070;14.064;2023-07-16T06:10:02;98494.25;;;20.43
73685;BMP280;61985;51.070;14.064;2023-07-16T06:12:27;98485.06;;;20.46
73685;BMP280;61985;51.070;14.064;2023-07-16T06:14:53;98482.81;;;20.56
73685;BMP280;61985;51.070;14.064;2023-07-16T06:17:18;98482.56;;;20.59
73685;BMP280;61985;51.070;14.064;2023-07-16T06:19:44;98488.75;;;20.71
73685;BMP280;61985;51.070;14.064;2023-07-16T06:22:09;98494.47;;;20.79
73685;BMP280;61985;51.070;14.064;2023-07-16T06:24:35;98489.44;;;20.83
73685;BMP280;61985;51.070;14.064;2023-07-16T06:27:00;98492.47;;;20.85
73685;BMP280;61985;51.070;14.064;2023-07-16T06:29:26;98494.38;;;21.01
73685;BMP280;61985;51.070;14.064;2023-07-16T06:31:55;98500.00;;;21.20
73685;BMP280;61985;51.070;14.064;2023-07-16T06:34:22;98535.13;;;21.22
73685;BMP280;61985;51.070;14.064;2023-07-16T06:36:48;98553.63;;;21.04
73685;BMP280;61985;51.070;14.064;2023-07-16T06:39:13;98561.09;;;21.09
73685;BMP280;61985;51.070;14.064;2023-07-16T06:41:38;98542.41;;;21.08
73685;BMP280;61985;51.070;14.064;2023-07-16T06:44:04;98548.31;;;21.29
73685;BMP280;61985;51.070;14.064;2023-07-16T06:46:29;98553.28;;;21.36
73685;BMP280;61985;51.070;14.064;2023-07-16T06:48:54;98557.16;;;21.52
73685;BMP280;61985;51.070;14.064;2023-07-16T06:51:20;98563.84;;;21.68
73685;BMP280;61985;51.070;14.064;2023-07-16T06:53:47;98556.50;;;21.82
73685;BMP280;61985;51.070;14.064;2023-07-16T06:56:12;98563.88;;;21.98
73685;BMP280;61985;51.070;14.064;2023-07-16T06:58:38;98557.38;;;22.01
73685;BMP280;61985;51.070;14.064;2023-07-16T07:01:03;98562.09;;;22.06
73685;BMP280;61985;51.070;14.064;2023-07-16T07:03:29;98557.50;;;22.20
73685;BMP280;61985;51.070;14.064;2023-07-16T07:05:54;98561.41;;;22.30
73685;BMP280;61985;51.070;14.064;2023-07-16T07:08:20;98565.03;;;22.44
73685;BMP280;61985;51.070;14.064;2023-07-16T07:10:48;98561.09;;;22.39
73685;BMP280;61985;51.070;14.064;2023-07-16T07:13:14;98564.47;;;22.21
73685;BMP280;61985;51.070;14.064;2023-07-16T07:15:42;98570.78;;;22.16
73685;BMP280;61985;51.070;14.064;2023-07-16T07:18:08;98568.25;;;22.18
73685;BMP280;61985;51.070;14.064;2023-07-16T07:20:33;98568.47;;;22.20
73685;BMP280;61985;51.070;14.064;2023-07-16T07:22:58;98570.56;;;22.08
73685;BMP280;61985;51.070;14.064;2023-07-16T07:25:27;98573.09;;;22.00
73685;BMP280;61985;51.070;14.064;2023-07-16T07:27:52;98570.81;;;22.05
73685;BMP280;61985;51.070;14.064;2023-07-16T07:30:18;98569.22;;;22.20
73685;BMP280;61985;51.070;14.064;2023-07-16T07:32:43;98571.97;;;22.20
73685;BMP280;61985;51.070;14.064;2023-07-16T07:35:08;98579.09;;;22.35
73685;BMP280;61985;51.070;14.064;2023-07-16T07:37:34;98576.97;;;22.47
73685;BMP280;61985;51.070;14.064;2023-07-16T07:39:59;98573.19;;;22.50
73685;BMP280;61985;51.070;14.064;2023-07-16T07:42:25;98572.13;;;22.58
73685;BMP280;61985;51.070;14.064;2023-07-16T07:44:52;98576.09;;;22.63
73685;BMP280;61985;51.070;14.064;2023-07-16T07:47:17;98578.72;;;22.74
73685;BMP280;61985;51.070;14.064;2023-07-16T07:49:43;98589.94;;;22.76
73685;BMP280;61985;51.070;14.064;2023-07-16T07:52:08;98586.69;;;22.78
73685;BMP280;61985;51.070;14.064;2023-07-16T07:54:33;98576.66;;;22.80
73685;BMP280;61985;51.070;14.064;2023-07-16T07:57:01;98594.06;;;22.88
73685;BMP280;61985;51.070;14.064;2023-07-16T07:59:30;98602.19;;;23.00
73685;BMP280;61985;51.070;14.064;2023-07-16T08:01:56;98584.81;;;23.10
73685;BMP280;61985;51.070;14.064;2023-07-16T08:04:21;98597.47;;;23.19
73685;BMP280;61985;51.070;14.064;2023-07-16T08:06:49;98615.44;;;23.20
73685;BMP280;61985;51.070;14.064;2023-07-16T08:09:14;98620.03;;;23.12
73685;BMP280;61985;51.070;14.064;2023-07-16T08:11:39;98611.59;;;23.29
73685;BMP280;61985;51.070;14.064;2023-07-16T08:14:05;98618.13;;;23.26
73685;BMP280;61985;51.070;14.064;2023-07-16T08:16:30;98611.56;;;23.35
73685;BMP280;61985;51.070;14.064;2023-07-16T08:18:56;98597.97;;;23.42
73685;BMP280;61985;51.070;14.064;2023-07-16T08:21:21;98606.50;;;23.58
73685;BMP280;61985;51.070;14.064;2023-07-16T08:23:51;98605.00;;;23.75
73685;BMP280;61985;51.070;14.064;2023-07-16T08:26:17;98609.88;;;24.02
73685;BMP280;61985;51.070;14.064;2023-07-16T08:28:42;98605.97;;;23.78
73685;BMP280;61985;51.070;14.064;2023-07-16T08:31:07;98617.94;;;23.62
73685;BMP280;61985;51.070;14.064;2023-07-16T08:33:33;98621.00;;;23.58
73685;BMP280;61985;51.070;14.064;2023-07-16T08:35:58;98633.31;;;23.51
73685;BMP280;61985;51.070;14.064;2023-07-16T08:38:23;98631.47;;;23.41
73685;BMP280;61985;51.070;14.064;2023-07-16T08:40:49;98633.16;;;23.44
73685;BMP280;61985;51.070;14.064;2023-07-16T08:43:16;98637.66;;;23.47
73685;BMP280;61985;51.070;14.064;2023-07-16T08:45:41;98637.81;;;23.54
73685;BMP280;61985;51.070;14.064;2023-07-16T08:48:11;98642.31;;;23.71
73685;BMP280;61985;51.070;14.064;2023-07-16T08:50:37;98635.25;;;23.75
73685;BMP280;61985;51.070;14.064;2023-07-16T08:53:06;98632.31;;;23.73
73685;BMP280;61985;51.070;14.064;2023-07-16T08:55:32;98631.91;;;23.83
73685;BMP280;61985;51.070;14.064;2023-07-16T08:57:58;98626.25;;;24.26
73685;BMP280;61985;51.070;14.064;2023-07-16T09:00:29;98629.41;;;24.17
73685;BMP280;61985;51.070;14.064;2023-07-16T09:02:55;98637.31;;;24.07
73685;BMP280;61985;51.070;14.064;2023-07-16T09:08:44;98641.41;;;23.82
73685;BMP280;61985;51.070;14.064;2023-07-16T09:11:12;98650.41;;;23.63
73685;BMP280;61985;51.070;14.064;2023-07-16T09:13:46;98652.06;;;23.72
73685;BMP280;61985;51.070;14.064;2023-07-16T09:16:11;98648.72;;;23.79
73685;BMP280;61985;51.070;14.064;2023-07-16T09:18:39;98649.63;;;23.87
73685;BMP280;61985;51.070;14.064;2023-07-16T09:21:05;98646.38;;;24.02
73685;BMP280;61985;51.070;14.064;2023-07-16T09:23:32;98647.31;;;24.24
73685;BMP280;61985;51.070;14.064;2023-07-16T09:25:58;98663.09;;;24.23
73685;BMP280;61985;51.070;14.064;2023-07-16T09:28:24;98665.13;;;24.23
73685;BMP280;61985;51.070;14.064;2023-07-16T09:30:50;98648.50;;;24.28
73685;BMP280;61985;51.070;14.064;2023-07-16T09:33:17;98660.25;;;24.29
73685;BMP280;61985;51.070;14.064;2023-07-16T09:35:43;98653.72;;;24.32
73685;BMP280;61985;51.070;14.064;2023-07-16T09:38:09;98647.97;;;24.30
73685;BMP280;61985;51.070;14.064;2023-07-16T09:40:38;98645.47;;;24.32
73685;BMP280;61985;51.070;14.064;2023-07-16T09:43:06;98645.00;;;24.28
73685;BMP280;61985;51.070;14.064;2023-07-16T09:45:31;98650.53;;;24.28
73685;BMP280;61985;51.070;14.064;2023-07-16T09:47:56;98657.13;;;24.38
73685;BMP280;61985;51.070;14.064;2023-07-16T09:50:28;98668.41;;;24.21
73685;BMP280;61985;51.070;14.064;2023-07-16T09:52:56;98672.88;;;24.05
73685;BMP280;61985;51.070;14.064;2023-07-16T09:55:22;98672.44;;;24.01
73685;BMP280;61985;51.070;14.064;2023-07-16T09:57:49;98661.25;;;24.12
73685;BMP280;61985;51.070;14.064;2023-07-16T10:00:15;98654.91;;;24.50
73685;BMP280;61985;51.070;14.064;2023-07-16T10:02:43;98660.13;;;24.53
73685;BMP280;61985;51.070;14.064;2023-07-16T10:05:23;98663.47;;;24.92
73685;BMP280;61985;51.070;14.064;2023-07-16T10:07:54;98659.94;;;25.18
73685;BMP280;61985;51.070;14.064;2023-07-16T10:10:20;98667.78;;;25.00
73685;BMP280;61985;51.070;14.064;2023-07-16T10:13:01;98672.34;;;24.98
73685;BMP280;61985;51.070;14.064;2023-07-16T10:15:28;98664.00;;;25.17
73685;BMP280;61985;51.070;14.064;2023-07-16T10:17:54;98657.72;;;25.29
73685;BMP280;61985;51.070;14.064;2023-07-16T10:22:55;98656.94;;;25.56
73685;BMP280;61985;51.070;14.064;2023-07-16T10:27:47;98675.91;;;25.59
73685;BMP280;61985;51.070;14.064;2023-07-16T10:30:13;98671.13;;;25.60
73685;BMP280;61985;51.070;14.064;2023-07-16T10:32:39;98668.50;;;25.54
73685;BMP280;61985;51.070;14.064;2023-07-16T10:35:06;98667.34;;;25.84
73685;BMP280;61985;51.070;14.064;2023-07-16T10:37:32;98665.56;;;26.07
73685;BMP280;61985;51.070;14.064;2023-07-16T10:39:59;98669.22;;;26.23
73685;BMP280;61985;51.070;14.064;2023-07-16T10:42:26;98662.03;;;26.20
73685;BMP280;61985;51.070;14.064;2023-07-16T10:44:59;98669.50;;;26.12
73685;BMP280;61985;51.070;14.064;2023-07-16T10:49:58;98672.59;;;25.74
73685;BMP280;61985;51.070;14.064;2023-07-16T10:52:24;98669.09;;;25.73
73685;BMP280;61985;51.070;14.064;2023-07-16T10:54:53;98683.59;;;25.87
73685;BMP280;61985;51.070;14.064;2023-07-16T10:57:23;98673.78;;;25.99
73685;BMP280;61985;51.070;14.064;2023-07-16T10:59:51;98675.69;;;26.26
73685;BMP280;61985;51.070;14.064;2023-07-16T11:02:16;98666.66;;;26.25
73685;BMP280;61985;51.070;14.064;2023-07-16T11:04:44;98675.31;;;26.50
73685;BMP280;61985;51.070;14.064;2023-07-16T11:07:11;98667.66;;;26.35
73685;BMP280;61985;51.070;14.064;2023-07-16T11:12:12;98675.25;;;26.42
73685;BMP280;61985;51.070;14.064;2023-07-16T11:14:42;98663.22;;;26.61
73685;BMP280;61985;51.070;14.064;2023-07-16T11:17:08;98670.56;;;26.79
73685;BMP280;61985;51.070;14.064;2023-07-16T11:19:35;98679.97;;;27.12
73685;BMP280;61985;51.070;14.064;2023-07-16T11:22:02;98674.34;;;27.33
73685;BMP280;61985;51.070;14.064;2023-07-16T11:24:28;98676.19;;;27.39
73685;BMP280;61985;51.070;14.064;2023-07-16T11:26:54;98664.63;;;27.48
73685;BMP280;61985;51.070;14.064;2023-07-16T11:29:22;98679.47;;;27.29
73685;BMP280;61985;51.070;14.064;2023-07-16T11:31:52;98670.41;;;27.80
73685;BMP280;61985;51.070;14.064;2023-07-16T11:34:20;98661.94;;;27.94
73685;BMP280;61985;51.070;14.064;2023-07-16T11:36:46;98664.91;;;28.19
73685;BMP280;61985;51.070;14.064;2023-07-16T11:39:12;98664.53;;;28.22
73685;BMP280;61985;51.070;14.064;2023-07-16T11:41:37;98664.91;;;28.11
73685;BMP280;61985;51.070;14.064;2023-07-16T11:44:03;98672.22;;;27.70
73685;BMP280;61985;51.070;14.064;2023-07-16T11:46:32;98665.47;;;27.27
73685;BMP280;61985;51.070;14.064;2023-07-16T11:48:59;98654.88;;;27.70
73685;BMP280;61985;51.070;14.064;2023-07-16T11:51:24;98660.84;;;28.12
73685;BMP280;61985;51.070;14.064;2023-07-16T11:53:50;98664.66;;;28.78
73685;BMP280;61985;51.070;14.064;2023-07-16T11:56:15;98654.88;;;28.69
73685;BMP280;61985;51.070;14.064;2023-07-16T11:58:40;98639.59;;;28.45
73685;BMP280;61985;51.070;14.064;2023-07-16T12:01:06;98652.34;;;28.25
73685;BMP280;61985;51.070;14.064;2023-07-16T12:03:31;98649.50;;;27.64
73685;BMP280;61985;51.070;14.064;2023-07-16T12:05:56;98644.91;;;27.74
73685;BMP280;61985;51.070;14.064;2023-07-16T12:08:22;98648.56;;;27.46
73685;BMP280;61985;51.070;14.064;2023-07-16T12:10:49;98654.56;;;27.29
73685;BMP280;61985;51.070;14.064;2023-07-16T12:13:14;98649.91;;;27.09
73685;BMP280;61985;51.070;14.064;2023-07-16T12:15:39;98644.88;;;27.59
73685;BMP280;61985;51.070;14.064;2023-07-16T12:18:05;98644.19;;;27.74
73685;BMP280;61985;51.070;14.064;2023-07-16T12:20:30;98643.38;;;27.43
73685;BMP280;61985;51.070;14.064;2023-07-16T12:22:55;98645.38;;;27.34
73685;BMP280;61985;51.070;14.064;2023-07-16T12:25:21;98649.91;;;27.09
73685;BMP280;61985;51.070;14.064;2023-07-16T12:27:46;98642.91;;;27.16
73685;BMP280;61985;51.070;14.064;2023-07-16T12:30:11;98654.81;;;27.47
73685;BMP280;61985;51.070;14.064;2023-07-16T12:32:37;98648.25;;;27.80
73685;BMP280;61985;51.070;14.064;2023-07-16T12:35:03;98646.63;;;28.08
73685;BMP280;61985;51.070;14.064;2023-07-16T12:37:29;98646.44;;;27.91
73685;BMP280;61985;51.070;14.064;2023-07-16T12:39:55;98641.63;;;27.99
73685;BMP280;61985;51.070;14.064;2023-07-16T12:42:21;98645.50;;;27.96
73685;BMP280;61985;51.070;14.064;2023-07-16T12:44:46;98652.34;;;27.95
73685;BMP280;61985;51.070;14.064;2023-07-16T12:47:11;98641.19;;;27.64
73685;BMP280;61985;51.070;14.064;2023-07-16T12:49:37;98640.94;;;27.39
73685;BMP280;61985;51.070;14.064;2023-07-16T12:52:02;98643.13;;;27.25
73685;BMP280;61985;51.070;14.064;2023-07-16T12:54:27;98637.13;;;27.50
73685;BMP280;61985;51.070;14.064;2023-07-16T12:56:53;98640.63;;;27.35
73685;BMP280;61985;51.070;14.064;2023-07-16T12:59:18;98636.72;;;27.30
73685;BMP280;61985;51.070;14.064;2023-07-16T13:01:44;98636.31;;;27.26
73685;BMP280;61985;51.070;14.064;2023-07-16T13:04:09;98641.25;;;27.20
73685;BMP280;61985;51.070;14.064;2023-07-16T13:06:34;98644.44;;;27.24
73685;BMP280;61985;51.070;14.064;2023-07-16T13:09:00;98647.00;;;27.22
73685;BMP280;61985;51.070;14.064;2023-07-16T13:11:25;98641.84;;;27.26
73685;BMP280;61985;51.070;14.064;2023-07-16T13:13:51;98647.19;;;28.07
73685;BMP280;61985;51.070;14.064;2023-07-16T13:16:17;98638.75;;;28.91
73685;BMP280;61985;51.070;14.064;2023-07-16T13:18:42;98641.19;;;29.52
73685;BMP280;61985;51.070;14.064;2023-07-16T13:21:07;98640.50;;;29.77
73685;BMP280;61985;51.070;14.064;2023-07-16T13:23:33;98625.28;;;30.03
73685;BMP280;61985;51.070;14.064;2023-07-16T13:25:58;98630.56;;;29.91
73685;BMP280;61985;51.070;14.064;2023-07-16T13:28:23;98631.72;;;30.05
73685;BMP280;61985;51.070;14.064;2023-07-16T13:30:49;98633.41;;;30.43
73685;BMP280;61985;51.070;14.064;2023-07-16T13:33:15;98636.78;;;30.42
73685;BMP280;61985;51.070;14.064;2023-07-16T13:35:41;98636.34;;;30.10
73685;BMP280;61985;51.070;14.064;2023-07-16T13:38:06;98630.44;;;30.06
73685;BMP280;61985;51.070;14.064;2023-07-16T13:40:31;98628.94;;;30.05
73685;BMP280;61985;51.070;14.064;2023-07-16T13:42:57;98636.50;;;30.30
73685;BMP280;61985;51.070;14.064;2023-07-16T13:45:24;98636.25;;;30.88
73685;BMP280;61985;51.070;14.064;2023-07-16T13:47:49;98639.91;;;31.07
73685;BMP280;61985;51.070;14.064;2023-07-16T13:50:17;98636.03;;;31.30
73685;BMP280;61985;51.070;14.064;2023-07-16T13:52:44;98643.97;;;31.06
73685;BMP280;61985;51.070;14.064;2023-07-16T13:55:09;98642.03;;;30.99
73685;BMP280;61985;51.070;14.064;2023-07-16T13:57:34;98636.75;;;30.94
73685;BMP280;61985;51.070;14.064;2023-07-16T14:00:00;98633.31;;;30.86
73685;BMP280;61985;51.070;14.064;2023-07-16T14:02:25;98643.63;;;30.58
73685;BMP280;61985;51.070;14.064;2023-07-16T14:04:51;98633.22;;;30.76
73685;BMP280;61985;51.070;14.064;2023-07-16T14:07:22;98637.50;;;31.04
73685;BMP280;61985;51.070;14.064;2023-07-16T14:09:48;98630.22;;;31.36
73685;BMP280;61985;51.070;14.064;2023-07-16T14:12:13;98630.41;;;31.11
73685;BMP280;61985;51.070;14.064;2023-07-16T14:14:39;98634.63;;;30.32
73685;BMP280;61985;51.070;14.064;2023-07-16T14:17:05;98628.66;;;30.36
73685;BMP280;61985;51.070;14.064;2023-07-16T14:19:30;98631.06;;;30.84
73685;BMP280;61985;51.070;14.064;2023-07-16T14:21:56;98630.69;;;30.88
73685;BMP280;61985;51.070;14.064;2023-07-16T14:24:21;98634.97;;;30.36
73685;BMP280;61985;51.070;14.064;2023-07-16T14:26:46;98634.03;;;30.51
73685;BMP280;61985;51.070;14.064;2023-07-16T14:29:12;98631.81;;;31.02
73685;BMP280;61985;51.070;14.064;2023-07-16T14:31:37;98643.34;;;31.62
73685;BMP280;61985;51.070;14.064;2023-07-16T14:34:03;98642.31;;;31.58
73685;BMP280;61985;51.070;14.064;2023-07-16T14:36:28;98635.56;;;31.51